Time;durP1;ratioP1;P1;durP2;ratioP2;P2;SDS_P1;SDS_P2;PMS_P1;PMS_P2;Temp;Humidity;BMP_temperature;BMP_pressure;BME280_temperature;BME280_humidity;BME280_pressure;Samples;Min_cycle;Max_cycle;Signal;HPM_P1;HPM_P2
2022/04/15 08:45:28;;;;;;;29.83;21.60;;;;;;;12.51;60.13;102259.56;5791436;23;121514;-96
2022/04/15 08:54:16;;;;;;;25.88;16.45;;;;;;;13.21;59.11;102347.38;5494923;23;120929;-96
2022/04/15 08:56:43;;;;;;;22.65;16.15;;;;;;;13.03;58.74;102308.41;5102897;23;120482;-96
2022/04/15 09:04:50;;;;;;;17.23;12.65;;;;;;;13.32;58.29;102362.91;4632936;23;121465;-96
2022/04/15 09:13:40;;;;;;;20.70;14.75;;;;;;;13.34;58.06;102372.31;5416337;23;120382;31
2022/04/15 09:47:22;;;;;;;16.90;11.48;;;;;;;13.48;56.12;102340.84;5782992;23;121113;-96
2022/04/15 09:49:54;;;;;;;16.15;10.90;;;;;;;13.65;56.12;102349.91;5284136;23;121683;-96
2022/04/15 10:23:26;;;;;;;13.73;10.23;;;;;;;13.88;55.51;102380.09;5672822;23;121371;-96
2022/04/15 10:52:25;;;;;;;16.45;11.57;;;;;;;14.02;55.22;102437.69;5763978;23;120923;-95
2022/04/15 11:08:56;;;;;;;18.15;12.90;;;;;;;13.52;57.12;102407.75;5500362;23;120997;-96
2022/04/15 11:28:59;;;;;;;22.58;14.55;;;;;;;13.87;56.34;102427.41;5472616;23;120876;-96
2022/04/15 11:31:26;;;;;;;18.88;12.70;;;;;;;13.87;56.11;102430.94;4879124;28;119565;-96
2022/04/15 11:43:26;;;;;;;20.88;13.20;;;;;;;14.33;57.05;102490.53;3824984;23;121265;-95
2022/04/15 11:45:52;;;;;;;18.85;12.52;;;;;;;14.27;56.61;102467.41;5002960;23;119821;-96
2022/04/15 11:48:23;;;;;;;19.35;12.20;;;;;;;13.95;56.77;102428.78;5281482;23;120978;-96
2022/04/15 11:53:39;;;;;;;25.95;19.13;;;;;;;14.24;56.67;102468.28;5195836;23;120661;-96
2022/04/15 12:06:20;;;;;;;21.50;12.85;;;;;;;14.39;56.64;102488.78;4896613;23;120939;-95
2022/04/15 12:17:54;;;;;;;17.80;12.18;;;;;;;13.76;57.22;102460.78;5147631;23;119984;-96
2022/04/15 12:20:23;;;;;;;16.33;11.30;;;;;;;13.71;57.11;102447.47;4856161;28;120995;-95
2022/04/15 12:23:02;;;;;;;17.23;11.45;;;;;;;13.96;57.36;102510.34;4851367;28;122724;-96
2022/04/15 12:26:09;;;;;;;17.65;11.55;;;;;;;14.03;57.58;102516.50;5484579;23;120856;31
2022/04/15 12:31:38;;;;;;;17.40;10.93;;;;;;;13.53;58.28;102453.41;5728600;23;121003;-95
2022/04/15 12:34:04;;;;;;;19.67;11.45;;;;;;;14.04;58.65;102523.56;4832662;28;119043;-96
2022/04/15 12:36:40;;;;;;;19.40;11.68;;;;;;;13.67;57.80;102464.09;4866716;28;121859;-95
2022/04/15 12:39:07;;;;;;;15.20;10.68;;;;;;;13.56;58.04;102460.03;4851113;28;118523;-95
2022/04/15 12:41:46;;;;;;;14.57;9.70;;;;;;;13.63;58.43;102451.59;4851563;28;120363;-94
2022/04/15 12:44:32;;;;;;;14.75;10.68;;;;;;;13.82;57.66;102494.91;4865415;28;119639;-95
2022/04/15 12:47:00;;;;;;;16.90;11.35;;;;;;;13.93;58.20;102508.44;4850679;28;119442;-96
2022/04/15 12:49:34;;;;;;;15.00;10.30;;;;;;;14.16;57.48;102538.66;4886527;28;118549;-96
2022/04/15 12:52:13;;;;;;;14.85;9.95;;;;;;;13.61;58.09;102454.00;4883166;28;119310;-95
2022/04/15 12:54:58;;;;;;;14.38;9.85;;;;;;;14.06;57.69;102540.47;4831455;28;120604;-96
2022/04/15 12:57:30;;;;;;;15.52;10.70;;;;;;;13.70;58.00;102490.03;4849227;28;120888;-95
2022/04/15 12:59:57;;;;;;;15.15;10.27;;;;;;;14.11;57.83;102547.44;4834860;28;119509;-94
2022/04/15 13:02:23;;;;;;;14.73;10.15;;;;;;;14.16;57.77;102548.91;4866393;28;119417;-95
2022/04/15 13:04:52;;;;;;;17.20;11.43;;;;;;;13.91;58.18;102514.41;4849953;28;122197;-95
2022/04/15 13:07:21;;;;;;;15.63;11.02;;;;;;;14.13;58.48;102553.31;4850574;28;118561;-96
2022/04/15 13:09:48;;;;;;;17.63;11.82;;;;;;;13.78;57.91;102516.28;4866606;28;119496;-96
2022/04/15 13:12:15;;;;;;;22.05;12.68;;;;;;;13.99;58.27;102557.19;4870065;28;120278;-96
2022/04/15 13:14:41;;;;;;;17.23;11.98;;;;;;;14.00;58.75;102561.50;4850175;28;121028;-95
2022/04/15 13:17:14;;;;;;;20.75;13.23;;;;;;;13.65;58.40;102520.88;4865960;28;119635;-94
2022/04/15 13:19:41;;;;;;;15.70;12.07;;;;;;;13.82;58.32;102537.06;4866379;28;118573;-95
2022/04/15 13:24:56;;;;;;;20.05;11.70;;;;;;;13.81;58.77;102529.22;5490153;23;121455;-94
2022/04/15 13:27:22;;;;;;;17.85;12.10;;;;;;;13.72;59.11;102506.94;4627206;28;6368003;-96
2022/04/15 13:41:10;;;;;;;20.25;11.32;;;;;;;13.80;57.95;102516.63;5705314;23;121368;-95
2022/04/15 13:43:36;;;;;;;16.95;10.75;;;;;;;14.04;57.78;102531.84;4853868;28;121416;-94
2022/04/15 14:03:12;;;;;;;15.13;9.77;;;;;;;14.18;57.25;102563.84;4840654;29;120317;-96
2022/04/15 14:05:42;;;;;;;11.82;9.07;;;;;;;13.85;56.99;102510.59;4840547;29;120946;-96
2022/04/15 14:08:09;;;;;;;13.63;8.55;;;;;;;14.15;57.21;102556.41;4863108;28;119927;-96
2022/04/15 14:10:38;;;;;;;14.15;8.55;;;;;;;14.22;57.71;102567.31;4850521;29;118379;-96
2022/04/15 14:13:04;;;;;;;9.27;7.95;;;;;;;14.30;56.68;102581.72;4832543;28;120885;-96
2022/04/15 14:15:30;;;;;;;11.43;8.45;;;;;;;13.84;56.86;102525.59;5006807;23;121797;-96
2022/04/15 14:17:59;;;;;;;13.15;8.30;;;;;;;13.78;56.90;102538.34;4843127;28;118434;-96
2022/04/15 14:20:26;;;;;;;9.15;7.93;;;;;;;14.02;57.67;102567.38;4839793;28;120474;-96
2022/04/15 14:22:54;;;;;;;10.35;7.18;;;;;;;13.75;56.53;102531.72;4838903;29;118406;-96
2022/04/15 14:25:26;;;;;;;12.40;8.30;;;;;;;13.73;57.09;102527.81;5333077;23;121278;-96
2022/04/15 14:47:35;;;;;;;9.18;7.35;;;;;;;14.03;57.31;102607.56;5072241;23;121265;-96
2022/04/15 14:50:05;;;;;;;8.40;7.00;;;;;;;13.51;57.20;102527.50;4848741;28;122271;-96
2022/04/15 14:52:31;;;;;;;9.70;7.03;;;;;;;13.84;57.35;102589.03;4852491;28;118379;-96
2022/04/15 14:55:00;;;;;;;8.93;6.57;;;;;;;14.00;57.52;102610.38;4866305;28;118796;-96
2022/04/15 14:57:27;;;;;;;9.02;6.95;;;;;;;13.59;57.40;102552.94;4845331;28;121813;-96
2022/04/15 14:59:52;;;;;;;9.07;7.50;;;;;;;13.77;57.35;102578.16;4852997;28;119034;-96
2022/04/15 15:02:18;;;;;;;8.98;6.93;;;;;;;13.63;57.08;102565.44;4821663;28;121578;-96
2022/04/15 15:04:47;;;;;;;11.25;7.00;;;;;;;13.82;57.36;102596.97;4856967;28;121405;-96
2022/04/15 15:07:12;;;;;;;11.23;7.28;;;;;;;13.93;57.57;102618.81;4828732;28;118573;-96
2022/04/15 15:09:38;;;;;;;9.73;6.45;;;;;;;13.94;57.71;102625.88;4841164;28;120001;-96
2022/04/15 15:12:32;;;;;;;;;;;;;;;;;;;;;
2022/04/15 15:15:04;;;;;;;8.32;6.30;;;;;;;13.66;57.09;102583.13;4856744;28;120754;-96
2022/04/15 15:17:31;;;;;;;8.45;6.18;;;;;;;13.93;57.39;102629.84;4837258;28;121692;-96
2022/04/15 17:51:05;;;;;;;28.90;21.63;;;;;;;13.12;63.59;102754.97;4999514;23;120175;-96
2022/04/15 17:53:31;;;;;;;28.00;22.08;;;;;;;13.27;63.61;102787.84;4869556;28;120879;-96
2022/04/15 17:55:57;;;;;;;27.55;22.40;;;;;;;13.24;63.98;102783.94;4882274;23;121773;-83
2022/04/15 17:58:23;;;;;;;36.55;25.02;;;;;;;13.15;63.79;102778.16;4793512;29;120500;-82
2022/04/15 18:00:52;;;;;;;34.63;24.65;;;;;;;13.15;64.01;102778.16;4811736;29;122070;-84
2022/04/15 18:03:19;;;;;;;34.40;26.13;;;;;;;13.15;63.98;102792.72;4813906;29;119951;-85
2022/04/15 18:05:47;;;;;;;33.72;25.35;;;;;;;13.15;63.95;102795.47;4832277;29;119865;-84
2022/04/15 18:08:15;;;;;;;36.50;26.45;;;;;;;13.10;63.54;102801.47;4799214;29;122052;-85
2022/04/15 18:10:41;;;;;;;37.10;26.80;;;;;;;13.15;63.61;102813.97;4810330;29;123394;-85
2022/04/15 18:13:06;;;;;;;35.50;26.45;;;;;;;13.07;63.17;102796.78;4816000;29;119965;-85
2022/04/15 18:15:34;;;;;;;32.33;24.48;;;;;;;13.08;62.89;102805.81;4806897;29;119974;-82
2022/04/15 18:18:04;;;;;;;33.67;24.02;;;;;;;13.07;63.36;102807.03;4807117;29;120994;-84
2022/04/15 18:20:36;;;;;;;40.72;24.98;;;;;;;13.06;63.46;102816.50;4794479;29;120944;-84
2022/04/15 18:23:06;;;;;;;33.80;23.55;;;;;;;13.08;62.86;102820.38;4824399;28;124498;-85
2022/04/15 18:25:34;;;;;;;32.42;22.85;;;;;;;13.02;62.97;102810.25;4795696;29;120665;-85
2022/04/15 18:28:00;;;;;;;31.13;23.65;;;;;;;13.04;62.69;102822.41;4795211;29;119683;-87
2022/04/15 18:30:26;;;;;;;35.25;23.60;;;;;;;13.02;63.03;102821.28;4811414;29;120160;-85
2022/04/15 18:32:52;;;;;;;35.92;22.02;;;;;;;13.06;62.97;102830.25;4812739;29;120173;-85
2022/04/15 18:35:21;;;;;;;39.17;21.92;;;;;;;13.06;62.98;102833.03;4817089;29;122776;-84
2022/04/15 18:37:47;;;;;;;35.40;20.17;;;;;;;12.99;62.27;102833.09;4810781;29;120041;-86
2022/04/15 18:40:13;;;;;;;32.47;19.55;;;;;;;12.91;62.48;102833.19;4809532;29;121840;-84
2022/04/15 18:42:39;;;;;;;31.25;18.58;;;;;;;12.90;62.52;102842.66;4811443;29;122972;-84
2022/04/15 18:45:06;;;;;;;28.23;18.20;;;;;;;12.81;62.66;102838.88;4813524;29;119979;-85
2022/04/15 18:47:31;;;;;;;28.48;17.02;;;;;;;12.80;62.58;102840.84;4797812;29;122501;-86
2022/04/15 18:52:42;;;;;;;;;;;;;;;12.83;62.10;102869.53;4825871;28;120628;-84
2022/04/15 18:57:58;;;;;;;23.55;14.68;;;;;;;12.70;61.76;102863.78;4790542;29;121528;-84
2022/04/15 19:00:24;;;;;;;23.77;14.52;;;;;;;12.76;61.73;102867.63;4777255;29;122145;-83
2022/04/15 19:02:50;;;;;;;20.98;13.80;;;;;;;12.66;61.53;102870.53;4791659;29;122680;-84
2022/04/15 19:05:15;;;;;;;22.98;13.63;;;;;;;12.69;60.79;102886.22;4776196;29;119984;-82
2022/04/15 19:07:41;;;;;;;20.85;14.23;;;;;;;12.64;61.11;102884.69;4793767;29;122049;-82
2022/04/15 19:10:07;;;;;;;21.23;13.75;;;;;;;12.70;61.69;102887.78;4783224;29;123590;-87
2022/04/15 19:12:36;;;;;;;21.77;14.15;;;;;;;12.59;61.65;102879.66;4793465;29;121091;-84
2022/04/15 19:15:05;;;;;;;22.98;13.68;;;;;;;12.64;61.59;102890.22;4795745;29;120002;-83
2022/04/15 19:17:30;;;;;;;20.70;13.43;;;;;;;12.70;61.61;102899.56;4809504;29;121626;-85
2022/04/15 19:19:59;;;;;;;22.23;12.77;;;;;;;12.68;61.39;102903.94;4791076;29;121841;-83
2022/04/15 19:22:25;;;;;;;19.80;12.95;;;;;;;12.71;60.96;102908.59;4793606;29;123273;-80
2022/04/15 19:24:50;;;;;;;17.15;11.82;;;;;;;12.63;61.07;102907.91;4779348;29;119984;-84
2022/04/15 19:27:16;;;;;;;18.92;12.50;;;;;;;12.57;60.89;102902.09;4796594;29;122445;-85
2022/04/15 19:29:42;;;;;;;20.15;12.20;;;;;;;12.62;61.11;102897.31;4794052;29;123015;-84
2022/04/15 19:32:08;;;;;;;19.08;12.10;;;;;;;12.64;61.11;102911.44;4777869;29;119692;-83
2022/04/15 19:34:33;;;;;;;19.45;12.10;;;;;;;12.53;60.76;102895.81;4779866;29;122531;-83
2022/04/15 19:36:59;;;;;;;19.75;12.40;;;;;;;12.56;61.00;102911.53;4797526;29;123132;-83
2022/04/15 19:39:25;;;;;;;20.13;12.00;;;;;;;12.63;60.93;102931.91;4783775;29;119638;-83
2022/04/15 19:41:50;;;;;;;20.05;12.20;;;;;;;12.56;60.47;102922.56;4792796;29;122868;-83
2022/04/15 19:44:16;;;;;;;16.77;11.48;;;;;;;12.54;60.51;102924.16;4789948;29;120866;-84
2022/04/15 19:46:41;;;;;;;19.67;12.60;;;;;;;12.47;60.79;102915.94;4778930;29;122584;-84
2022/04/15 19:49:09;;;;;;;19.20;12.20;;;;;;;12.50;60.89;102921.41;4777859;29;122939;-83
2022/04/15 19:51:35;;;;;;;18.38;11.90;;;;;;;12.59;60.59;102934.72;4791757;29;119671;-84
2022/04/15 19:54:01;;;;;;;22.35;12.93;;;;;;;12.60;60.67;102939.81;4794538;29;121312;-84
2022/04/15 20:01:55;;;;;;;19.27;12.73;;;;;;;12.54;60.52;102941.47;4813496;29;120375;-83
2022/04/15 20:04:20;;;;;;;22.40;13.65;;;;;;;12.53;60.39;102942.63;4791789;29;120106;-82
2022/04/15 20:06:46;;;;;;;20.67;13.30;;;;;;;12.51;60.56;102942.25;4794204;29;120402;-84
2022/04/15 20:09:16;;;;;;;21.60;13.50;;;;;;;12.49;60.63;102939.13;4809467;29;120319;-84
2022/04/15 20:11:42;;;;;;;20.33;13.20;;;;;;;12.62;60.78;102968.91;4794517;29;119632;-84
2022/04/15 20:14:08;;;;;;;19.95;13.75;;;;;;;12.60;60.46;102966.56;4793172;29;121955;-83
2022/04/15 20:16:34;;;;;;;20.17;13.02;;;;;;;12.49;60.02;102958.41;4809544;29;120036;-87
2022/04/15 20:19:00;;;;;;;20.33;13.63;;;;;;;12.47;60.40;102954.50;4795872;29;120404;-86
2022/04/15 20:21:26;;;;;;;19.40;13.77;;;;;;;12.52;60.05;102973.31;4810016;29;120480;-87
2022/04/15 20:23:53;;;;;;;20.30;14.30;;;;;;;12.51;60.51;102974.50;4797537;29;120373;-86
2022/04/15 20:26:19;;;;;;;22.58;13.63;;;;;;;12.42;60.69;102961.22;4797800;29;122213;-86
2022/04/15 20:28:45;;;;;;;20.98;13.85;;;;;;;12.38;60.48;102954.19;4798680;29;121960;-86
2022/04/15 20:31:12;;;;;;;19.05;13.82;;;;;;;12.43;60.71;102967.50;4799153;29;120148;-84
2022/04/15 20:33:39;;;;;;;23.55;14.15;;;;;;;12.52;60.31;102981.56;4793504;29;121887;-86
2022/04/15 20:36:04;;;;;;;20.50;13.43;;;;;;;12.40;60.42;102960.06;4798767;29;120920;-87
2022/04/15 20:38:30;;;;;;;25.38;14.07;;;;;;;12.42;60.14;102965.94;4792346;29;121638;-88
2022/04/15 20:40:57;;;;;;;21.95;14.07;;;;;;;12.48;60.03;102984.38;4798572;29;122440;-88
2022/04/15 20:43:23;;;;;;;24.42;15.05;;;;;;;12.31;60.50;102962.53;4795723;29;120188;-86
2022/04/15 20:45:49;;;;;;;22.88;13.52;;;;;;;12.32;60.16;102972.34;4800921;29;119618;-86
2022/04/15 20:50:58;;;;;;;;;;;;;;;12.44;60.33;102988.34;4797356;29;119563;-86
2022/04/15 20:53:24;;;;;;;23.88;14.20;;;;;;;12.29;60.21;102965.66;4795492;29;121988;-87
2022/04/15 20:55:49;;;;;;;23.75;13.80;;;;;;;12.36;60.56;102979.38;4785798;29;122705;-86
2022/04/15 20:58:16;;;;;;;25.77;14.02;;;;;;;12.38;60.19;102987.22;4797613;29;120566;-85
2022/04/15 21:00:45;;;;;;;22.75;14.23;;;;;;;12.42;59.88;102993.47;4798640;29;119543;-87
2022/04/15 21:03:12;;;;;;;23.50;14.40;;;;;;;12.34;59.85;102986.47;4796428;29;123391;-86
2022/04/15 21:05:38;;;;;;;21.75;15.32;;;;;;;12.40;60.37;102995.84;4786436;29;120603;-85
2022/04/15 21:08:05;;;;;;;23.65;15.35;;;;;;;12.28;60.54;102981.38;4796797;29;122229;-85
2022/04/15 21:10:32;;;;;;;26.20;14.80;;;;;;;12.29;60.87;102980.19;4813806;29;119613;-83
2022/04/15 21:12:58;;;;;;;23.17;14.52;;;;;;;12.34;60.36;102980.97;4782547;29;122452;-86
2022/04/15 21:15:29;;;;;;;21.98;14.23;;;;;;;12.26;60.42;102963.72;4795757;29;123418;-87
2022/04/15 21:17:55;;;;;;;24.38;15.30;;;;;;;12.33;60.24;102979.41;4796739;29;119793;-89
2022/04/15 21:20:21;;;;;;;21.65;14.60;;;;;;;12.33;60.53;102984.91;4797552;29;122171;-85
2022/04/15 21:22:47;;;;;;;21.88;14.73;;;;;;;12.40;60.24;103006.88;4811925;29;120475;-87
2022/04/15 21:25:14;;;;;;;24.05;14.55;;;;;;;12.33;60.11;102993.19;4799064;29;121064;-88
2022/04/15 21:27:39;;;;;;;23.60;14.98;;;;;;;12.33;60.37;102993.19;4815897;29;119726;-86
2022/04/15 21:30:06;;;;;;;24.58;14.82;;;;;;;12.35;60.57;103008.09;4797804;29;119856;-87
2022/04/15 21:32:32;;;;;;;23.23;15.00;;;;;;;12.42;60.47;103018.25;4809092;29;119778;-87
2022/04/15 21:34:57;;;;;;;18.15;13.48;;;;;;;12.26;60.18;102992.03;4794469;29;123391;-87
2022/04/15 21:37:23;;;;;;;19.85;13.23;;;;;;;12.33;60.27;102998.69;4798376;29;119522;-87
2022/04/15 21:39:50;;;;;;;24.70;14.52;;;;;;;12.33;60.48;103006.94;4813293;29;119912;-87
2022/04/15 21:42:15;;;;;;;21.27;13.80;;;;;;;12.29;60.27;103004.19;4797060;29;122869;-87
2022/04/15 21:44:43;;;;;;;21.45;12.93;;;;;;;12.25;60.27;102998.72;4796115;29;119954;-86
2022/04/15 21:47:10;;;;;;;26.80;13.93;;;;;;;12.15;60.30;102991.34;4780552;29;122480;-87
2022/04/15 21:49:35;;;;;;;19.05;11.82;;;;;;;12.27;59.89;103003.81;4799012;29;123215;-87
2022/04/15 21:54:45;;;;;;;19.90;11.90;;;;;;;12.27;59.78;103015.59;4795180;29;123469;-88
2022/04/15 21:57:12;;;;;;;18.85;11.80;;;;;;;12.26;59.52;103019.53;4796376;29;119832;-85
2022/04/15 21:59:39;;;;;;;20.58;12.30;;;;;;;12.25;60.33;103034.50;4792526;29;121910;-86
2022/04/15 22:02:12;;;;;;;20.35;11.98;;;;;;;12.21;59.80;103022.72;4810661;29;120854;-87
2022/04/15 22:04:39;;;;;;;18.38;12.45;;;;;;;12.24;59.88;103034.91;4786125;29;120346;-87
2022/04/15 22:07:09;;;;;;;20.02;11.48;;;;;;;12.31;59.21;103031.34;4798104;29;122140;-87
2022/04/15 22:09:39;;;;;;;18.52;11.48;;;;;;;12.31;59.44;103036.84;4795625;29;123061;-85
2022/04/15 22:12:06;;;;;;;18.05;11.55;;;;;;;12.23;59.69;103038.84;4795031;29;120547;-85
2022/04/15 22:14:37;;;;;;;18.98;12.00;;;;;;;12.21;59.91;103033.75;4775760;29;123733;-82
2022/04/15 22:17:08;;;;;;;18.17;10.95;;;;;;;12.31;59.91;103042.34;4793529;29;120184;-85
2022/04/15 22:19:39;;;;;;;19.05;11.82;;;;;;;12.17;59.61;103035.75;4777400;29;122458;-87
2022/04/15 22:22:07;;;;;;;16.90;10.70;;;;;;;12.13;59.85;103026.75;4791846;29;123204;-86
2022/04/15 22:24:34;;;;;;;17.48;11.45;;;;;;;12.17;59.64;103021.19;4778324;29;120693;-84
2022/04/15 22:27:01;;;;;;;16.33;10.88;;;;;;;12.11;59.16;103026.34;4792962;29;121946;-86
2022/04/15 22:29:27;;;;;;;16.13;11.02;;;;;;;12.13;58.92;103043.25;4791643;29;123225;-85
2022/04/15 22:31:53;;;;;;;14.52;10.07;;;;;;;12.21;59.37;103052.22;4793022;29;119641;-85
2022/04/15 22:34:19;;;;;;;17.60;10.98;;;;;;;12.05;59.59;103036.19;4811128;29;120262;-84
2022/04/15 22:36:45;;;;;;;17.95;12.02;;;;;;;12.18;59.70;103048.31;4793449;29;120857;-86
2022/04/15 22:39:10;;;;;;;18.65;12.10;;;;;;;12.13;59.51;103043.25;4793180;29;122123;-85
2022/04/15 22:41:36;;;;;;;22.02;13.82;;;;;;;11.96;59.16;103014.66;4791998;29;122811;-87
2022/04/15 22:44:02;;;;;;;21.65;14.80;;;;;;;12.14;59.11;103053.06;4792760;29;120230;-86
2022/04/15 22:46:28;;;;;;;24.80;16.15;;;;;;;12.13;59.21;103054.25;4808020;29;119788;-88
2022/04/15 22:48:53;;;;;;;20.23;15.20;;;;;;;12.17;58.81;103068.75;4794147;29;122796;-89
2022/04/15 22:51:19;;;;;;;23.35;15.15;;;;;;;11.79;59.15;103012.00;4794968;29;120149;-89
2022/04/15 22:53:44;;;;;;;22.23;14.80;;;;;;;12.17;59.51;103073.47;4782239;29;122489;-88
2022/04/15 22:58:54;;;;;;;19.48;12.75;;;;;;;12.21;59.34;103088.78;4814014;29;119683;-92
2022/04/15 23:01:23;;;;;;;16.58;10.73;;;;;;;12.16;59.42;103077.41;4781287;29;122904;-91
2022/04/15 23:03:49;;;;;;;15.93;10.45;;;;;;;12.20;59.10;103086.44;4780632;29;120378;-91
2022/04/15 23:06:14;;;;;;;19.15;10.23;;;;;;;12.23;59.17;103088.38;4781167;29;120639;-90
2022/04/15 23:08:45;;;;;;;15.82;9.82;;;;;;;11.95;58.76;103048.06;4810997;29;120457;-90
2022/04/15 23:11:12;;;;;;;15.68;10.18;;;;;;;12.17;59.01;103079.78;4794806;29;121685;-90
2022/04/15 23:13:40;;;;;;;;;;;;;;;12.18;58.89;103088.81;4797433;29;122347;-90
2022/04/15 23:16:07;;;;;;;;;;;;;;;12.12;58.75;103085.69;4799800;29;122678;-89
2022/04/15 23:18:33;;;;;;;16.88;10.32;;;;;;;12.09;59.20;103089.25;4795070;29;122389;-89
2022/04/15 23:20:59;;;;;;;14.30;10.13;;;;;;;12.02;59.17;103080.25;4792351;29;123215;-89
2022/04/15 23:23:26;;;;;;;24.00;12.70;;;;;;;12.11;58.91;103102.63;4797418;29;120006;-89
2022/04/15 23:25:54;;;;;;;17.23;11.65;;;;;;;11.97;59.21;103084.22;4812122;29;119795;-90
2022/04/15 23:28:23;;;;;;;15.63;10.18;;;;;;;11.98;59.50;103085.78;4795707;29;122704;-88
2022/04/15 23:30:50;;;;;;;15.20;9.85;;;;;;;12.10;59.53;103093.59;4781718;29;120563;-89
2022/04/15 23:33:16;;;;;;;15.68;10.07;;;;;;;11.69;59.27;103030.91;4795284;29;122430;-89
2022/04/15 23:35:44;;;;;;;15.70;10.57;;;;;;;11.81;59.34;103048.91;4796207;29;120101;-89
2022/04/15 23:38:10;;;;;;;14.77;9.55;;;;;;;12.09;58.86;103096.72;4798551;29;119903;-91
2022/04/15 23:40:35;;;;;;;16.67;10.18;;;;;;;12.05;58.98;103091.22;4811550;29;119850;-89
2022/04/15 23:43:01;;;;;;;15.75;9.82;;;;;;;11.61;59.24;103031.34;4781329;29;119722;-89
2022/04/15 23:45:28;;;;;;;15.05;9.88;;;;;;;11.78;59.28;103059.91;4796932;29;122155;-90
2022/04/15 23:50:38;;;;;;;;;;;;;;;12.05;58.72;103106.94;4797184;29;119904;-88
2022/04/15 23:53:05;;;;;;;13.57;9.23;;;;;;;11.93;59.07;103086.19;4779825;29;122304;-88
2022/04/15 23:55:31;;;;;;;15.27;9.10;;;;;;;12.02;59.63;103094.00;4809485;29;120159;-90
2022/04/15 23:57:56;;;;;;;14.82;9.60;;;;;;;12.05;59.55;103104.19;4801354;29;119846;-90
